CYQD

The Pas Airport

The Pas, Manitoba, Canada
TAF AMD CYQD 261319Z 2613/2701 16010KT P6SM SCT012 BKN080 TEMPO 2613/2618 FEW008 BKN012 OVC080 BECMG 2616/2618 24010KT FM261800 24010KT P6SM FEW060 BECMG 2619/2621 30015G25KT RMK NXT FCST BY 261900Z
Issued Valid From Valid To
Apr-26 @ 13:19 UTC
(22 minutes ago)
Apr-26 @ 13:00 UTC
(41 minutes ago)
Apr-27 @ 01:00 UTC
(in 11 hours)
Apr-26 @ 13:00 to Apr-26 @ 16:00
TAF AMD CYQD 261319Z 2613/2701 16010KT P6SM SCT012 BKN080
Wind Visibility Clouds
160° at 10 knots Greater than 6 miles
  • Scattered at 1,200' AGL
  • Broken at 8,000' AGL
Temporary Apr-26 @ 13:00 to Apr-26 @ 18:00
TEMPO 2613/2618 FEW008 BKN012 OVC080
Clouds
  • Few at 800' AGL
  • Broken at 1,200' AGL
  • Overcast at 8,000' AGL
Becoming Apr-26 @ 16:00 to Apr-26 @ 18:00
BECMG 2616/2618 24010KT
Wind Visibility Clouds
240° at 10 knots Greater than 6 miles
  • Scattered at 1,200' AGL
  • Broken at 8,000' AGL
From Apr-26 @ 18:00 to Apr-26 @ 19:00
FM261800 24010KT P6SM FEW060
Wind Visibility Clouds
240° at 10 knots Greater than 6 miles
  • Few at 6,000' AGL
Becoming Apr-26 @ 19:00 to Apr-27 @ 01:00
BECMG 2619/2621 30015G25KT RMK NXT FCST BY 261900Z
Wind Visibility Clouds
300° at 15 knots
 Gusting to 25 knots
Greater than 6 miles
  • Few at 6,000' AGL
TAF AMD CYQD 261319Z 2613/2701 16010KT P6SM SCT012 BKN080 TEMPO 2613/2618 FEW008 BKN012 OVC080 BECMG 2616/2618 24010KT FM261800 24010KT P6SM FEW060 BECMG 2619/2621 30015G25KT RMK NXT FCST BY 261900Z
Issued Apr-26 @ 13:19 UTC
(22 minutes ago)
Valid From Apr-26 @ 13:00 UTC
(41 minutes ago)
Valid To Apr-27 @ 01:00 UTC
(in 11 hours)
Apr-26 @ 13:00 - Apr-26 @ 16:00
Wind Visibility
160° at 10 knots Greater than 6 miles
Clouds
  • Scattered at 1,200' AGL
  • Broken at 8,000' AGL
Temporary Apr-26 @ 13:00 - Apr-26 @ 18:00
Clouds
  • Few at 800' AGL
  • Broken at 1,200' AGL
  • Overcast at 8,000' AGL
Becoming Apr-26 @ 16:00 - Apr-26 @ 18:00
Wind Visibility
240° at 10 knots Greater than 6 miles
Clouds
  • Scattered at 1,200' AGL
  • Broken at 8,000' AGL
From Apr-26 @ 18:00 - Apr-26 @ 19:00
Wind Visibility
240° at 10 knots Greater than 6 miles
Clouds
  • Few at 6,000' AGL
Becoming Apr-26 @ 19:00 - Apr-27 @ 01:00
Wind Visibility
300° at 15 knots
 Gusting to 25 knots
Greater than 6 miles
Clouds
  • Few at 6,000' AGL